createdAt,value
2023-01-08T00:01:35.778Z,4.64
2023-01-08T00:04:37.453Z,4.57
2023-01-08T00:07:39.577Z,4.56
2023-01-08T00:10:41.288Z,4.48
2023-01-08T00:13:43.493Z,4.55
2023-01-08T00:16:45.296Z,4.30
2023-01-08T00:19:47.078Z,4.27
2023-01-08T00:22:49.447Z,4.27
2023-01-08T00:25:51.126Z,4.30
2023-01-08T00:28:52.765Z,4.18
2023-01-08T00:31:54.444Z,4.24
2023-01-08T00:34:56.393Z,4.35
2023-01-08T00:37:58.188Z,4.33
2023-01-08T00:40:59.864Z,4.09
2023-01-08T00:44:01.543Z,4.06
2023-01-08T00:47:03.218Z,4.06
2023-01-08T00:50:05.389Z,4.12
2023-01-08T00:53:07.052Z,3.98
2023-01-08T00:56:10.896Z,3.98
2023-01-08T00:59:12.805Z,3.94
2023-01-08T01:02:14.650Z,3.99
2023-01-08T01:05:17.107Z,3.91
2023-01-08T01:08:18.814Z,3.89
2023-01-08T01:11:23.918Z,3.90
2023-01-08T01:14:25.722Z,3.84
2023-01-08T01:17:27.611Z,3.74
2023-01-08T01:20:29.283Z,3.84
2023-01-08T01:23:30.959Z,3.75
2023-01-08T01:26:33.914Z,3.76
2023-01-08T01:29:35.847Z,3.77
2023-01-08T01:32:37.548Z,3.68
2023-01-08T01:35:39.205Z,3.84
2023-01-08T01:38:48.186Z,4.13
2023-01-08T01:41:50.092Z,4.15
2023-01-08T01:44:52.115Z,4.11
2023-01-08T01:47:58.244Z,4.12
2023-01-08T01:50:59.953Z,4.12
2023-01-08T01:54:04.834Z,4.04
2023-01-08T01:57:08.530Z,4.04
2023-01-08T02:00:10.733Z,3.99
2023-01-08T02:03:14.371Z,3.82
2023-01-08T02:06:34.615Z,3.81
2023-01-08T02:10:02.149Z,3.84
2023-01-08T02:13:17.781Z,3.81
2023-01-08T02:16:25.394Z,3.92
2023-01-08T02:19:49.159Z,3.83
2023-01-08T02:23:15.614Z,3.89
2023-01-08T02:26:33.209Z,3.77
2023-01-08T02:29:35.698Z,3.65
2023-01-08T02:32:39.719Z,3.68
2023-01-08T02:36:27.494Z,3.57
2023-01-08T02:39:29.121Z,3.56
2023-01-08T02:42:37.115Z,3.43
2023-01-08T02:45:38.721Z,3.47
2023-01-08T02:48:48.554Z,3.60
2023-01-08T02:51:54.687Z,3.55
2023-01-08T02:54:58.589Z,3.59
2023-01-08T02:58:01.067Z,3.61
2023-01-08T03:01:04.361Z,3.61
2023-01-08T03:04:12.966Z,3.53
2023-01-08T03:07:14.782Z,3.70
2023-01-08T03:10:17.798Z,3.45
2023-01-08T03:13:26.632Z,3.39
2023-01-08T03:16:32.201Z,3.39
2023-01-08T03:19:42.824Z,3.59
2023-01-08T03:22:47.975Z,3.56
2023-01-08T03:25:49.893Z,3.37
2023-01-08T03:28:56.834Z,3.36
2023-01-08T03:32:03.061Z,3.43
2023-01-08T03:35:10.707Z,3.39
2023-01-08T03:38:27.452Z,3.47
2023-01-08T03:41:32.950Z,3.32
2023-01-08T03:44:34.733Z,3.28
2023-01-08T03:47:39.093Z,3.43
2023-01-08T03:50:41.541Z,3.40
2023-01-08T03:53:43.236Z,3.41
2023-01-08T03:56:45.520Z,3.40
2023-01-08T03:59:47.553Z,3.46
2023-01-08T04:02:49.187Z,3.44
2023-01-08T04:05:50.844Z,3.32
2023-01-08T04:08:52.510Z,3.34
2023-01-08T04:11:54.198Z,3.45
2023-01-08T04:14:55.830Z,3.45
2023-01-08T04:17:57.475Z,3.56
2023-01-08T04:20:59.204Z,3.32
2023-01-08T04:24:00.845Z,3.24
2023-01-08T04:27:02.539Z,3.49
2023-01-08T04:30:05.147Z,3.49
2023-01-08T04:33:06.810Z,3.37
2023-01-08T04:36:08.744Z,3.32
2023-01-08T04:39:11.354Z,3.41
2023-01-08T04:42:13.020Z,3.40
2023-01-08T04:45:14.753Z,3.42
2023-01-08T04:48:16.561Z,3.34
2023-01-08T04:51:18.257Z,3.33
2023-01-08T04:54:19.960Z,3.23
2023-01-08T04:57:21.685Z,3.30
2023-01-08T05:00:23.304Z,3.19
2023-01-08T05:03:25.063Z,3.26
2023-01-08T05:06:28.724Z,3.18
2023-01-08T05:09:30.435Z,3.10
2023-01-08T05:12:32.102Z,2.98
2023-01-08T05:15:33.803Z,3.02
2023-01-08T05:18:35.531Z,3.19
2023-01-08T05:21:37.432Z,3.11
2023-01-08T05:24:39.057Z,3.20
2023-01-08T05:27:40.686Z,3.23
2023-01-08T05:30:42.419Z,3.16
2023-01-08T05:33:44.413Z,3.03
2023-01-08T05:36:46.097Z,3.08
2023-01-08T05:39:47.815Z,3.03
2023-01-08T05:42:49.448Z,3.00
2023-01-08T05:45:51.100Z,2.88
2023-01-08T05:48:52.723Z,2.85
2023-01-08T05:51:54.359Z,2.81
2023-01-08T05:54:56.148Z,2.83
2023-01-08T05:58:01.738Z,2.91
2023-01-08T06:01:09.063Z,2.80
2023-01-08T06:04:10.817Z,2.77
2023-01-08T06:07:12.515Z,2.73
2023-01-08T06:10:14.385Z,2.67
2023-01-08T06:13:16.020Z,2.58
2023-01-08T06:16:17.779Z,2.54
2023-01-08T06:19:19.451Z,2.61
2023-01-08T06:22:21.132Z,2.55
2023-01-08T06:25:22.845Z,2.53
2023-01-08T06:28:24.730Z,2.45
2023-01-08T06:31:26.419Z,2.46
2023-01-08T06:34:28.090Z,2.50
2023-01-08T06:37:29.780Z,2.38
2023-01-08T06:40:31.427Z,2.49
2023-01-08T06:43:36.296Z,2.39
2023-01-08T06:46:40.589Z,2.29
2023-01-08T06:49:42.276Z,2.28
2023-01-08T06:52:43.915Z,2.29
2023-01-08T06:55:45.614Z,2.23
2023-01-08T06:58:47.238Z,2.27
2023-01-08T07:01:49.367Z,2.31
2023-01-08T07:04:51.080Z,2.31
2023-01-08T07:07:52.899Z,2.40
2023-01-08T07:10:54.533Z,2.28
2023-01-08T07:13:56.698Z,2.28
2023-01-08T07:16:58.362Z,2.26
2023-01-08T07:20:00.200Z,2.37
2023-01-08T07:23:07.231Z,2.38
2023-01-08T07:26:08.931Z,2.30
2023-01-08T07:29:10.590Z,2.44
2023-01-08T07:32:12.230Z,2.35
2023-01-08T07:35:14.063Z,2.38
2023-01-08T07:38:15.684Z,2.40
2023-01-08T07:41:17.807Z,2.33
2023-01-08T07:44:20.409Z,2.28
2023-01-08T07:47:22.074Z,2.29
2023-01-08T07:50:23.820Z,2.37
2023-01-08T07:53:25.472Z,2.39
2023-01-08T07:56:27.201Z,2.40
2023-01-08T07:59:28.889Z,2.54
2023-01-08T08:02:30.644Z,2.50
2023-01-08T08:05:33.241Z,2.55
2023-01-08T08:08:35.415Z,2.56
2023-01-08T08:11:38.600Z,2.53
2023-01-08T08:14:40.218Z,2.50
2023-01-08T08:17:45.943Z,2.61
2023-01-08T08:20:49.423Z,2.72
2023-01-08T08:23:51.115Z,2.69
2023-01-08T08:26:54.328Z,2.70
2023-01-08T08:29:55.964Z,2.72
2023-01-08T08:33:02.011Z,2.72
2023-01-08T08:36:03.838Z,2.78
2023-01-08T08:39:05.479Z,2.87
2023-01-08T08:42:07.161Z,2.99
2023-01-08T08:45:09.046Z,3.00
2023-01-08T08:48:11.453Z,2.96
2023-01-08T08:51:13.757Z,3.03
2023-01-08T08:54:15.416Z,3.14
2023-01-08T08:57:17.294Z,3.26
2023-01-08T09:00:19.074Z,3.26
2023-01-08T09:03:20.842Z,3.41
2023-01-08T09:06:23.305Z,3.70
2023-01-08T09:09:25.247Z,3.45
2023-01-08T09:12:26.939Z,3.40
2023-01-08T09:15:28.627Z,3.43
2023-01-08T09:18:30.434Z,3.47
2023-01-08T09:21:32.523Z,3.56
2023-01-08T09:24:34.296Z,3.77
2023-01-08T09:27:35.951Z,4.13
2023-01-08T09:30:38.400Z,4.02
2023-01-08T09:33:40.184Z,4.18
2023-01-08T09:36:41.930Z,4.22
2023-01-08T09:39:48.019Z,4.27
2023-01-08T09:42:57.746Z,4.38
2023-01-08T09:46:02.375Z,4.41
2023-01-08T09:49:10.702Z,4.49
2023-01-08T09:52:13.607Z,4.54
2023-01-08T09:55:16.784Z,4.67
2023-01-08T09:58:30.994Z,4.87
2023-01-08T10:01:37.547Z,5.00
2023-01-08T10:04:39.552Z,5.28
2023-01-08T10:07:41.308Z,5.56
2023-01-08T10:10:44.119Z,5.87
2023-01-08T10:13:53.449Z,5.91
2023-01-08T10:16:59.821Z,6.02
2023-01-08T10:20:02.312Z,7.78
2023-01-08T10:23:13.112Z,6.92
2023-01-08T10:26:26.807Z,6.90
2023-01-08T10:29:28.497Z,6.97
2023-01-08T10:32:34.738Z,7.40
2023-01-08T10:35:41.581Z,7.31
2023-01-08T10:39:00.060Z,7.46
2023-01-08T10:42:06.631Z,7.78
2023-01-08T10:45:22.690Z,7.69
2023-01-08T10:48:30.014Z,8.12
2023-01-08T10:51:33.130Z,8.10
2023-01-08T10:54:37.620Z,8.37
2023-01-08T10:57:42.611Z,8.10
2023-01-08T11:00:44.364Z,8.11
2023-01-08T11:03:51.622Z,8.21
2023-01-08T11:06:59.759Z,8.38
2023-01-08T11:10:03.453Z,8.64
2023-01-08T11:13:17.358Z,8.79
2023-01-08T11:16:19.012Z,9.17
2023-01-08T11:19:26.932Z,9.45
2023-01-08T11:22:29.371Z,9.26
2023-01-08T11:25:31.853Z,9.24
2023-01-08T11:28:46.092Z,9.12
2023-01-08T11:32:10.258Z,9.17
2023-01-08T11:35:17.933Z,9.31
2023-01-08T11:38:19.711Z,9.42
2023-01-08T11:41:46.307Z,9.43
2023-01-08T11:45:10.472Z,9.28
2023-01-08T11:48:39.839Z,9.19
2023-01-08T11:52:06.388Z,9.37
2023-01-08T11:55:41.329Z,9.52
2023-01-08T11:58:52.066Z,9.60
2023-01-08T12:02:22.345Z,9.52
2023-01-08T12:05:50.097Z,9.35
2023-01-08T12:09:09.765Z,9.29
2023-01-08T12:12:30.308Z,9.25
2023-01-08T12:15:50.849Z,9.19
2023-01-08T12:19:20.352Z,8.92
2023-01-08T12:22:50.981Z,8.98
2023-01-08T12:25:52.620Z,9.23
2023-01-08T12:29:06.564Z,9.28
2023-01-08T12:32:11.334Z,9.38
2023-01-08T12:35:25.476Z,9.29
2023-01-08T12:38:58.433Z,9.29
2023-01-08T12:42:11.798Z,9.34
2023-01-08T12:45:28.551Z,9.18
2023-01-08T12:48:33.673Z,8.93
2023-01-08T12:52:03.101Z,8.93
2023-01-08T12:55:30.703Z,8.96
2023-01-08T12:58:50.524Z,8.97
2023-01-08T13:02:07.681Z,8.93
2023-01-08T13:05:18.663Z,9.01
2023-01-08T13:08:36.067Z,8.85
2023-01-08T13:11:38.642Z,8.73
2023-01-08T13:14:42.897Z,8.77
2023-01-08T13:17:49.694Z,8.76
2023-01-08T13:20:57.526Z,8.67
2023-01-08T13:24:04.826Z,8.61
2023-01-08T13:27:18.742Z,8.60
2023-01-08T13:30:40.730Z,8.58
2023-01-08T13:33:43.362Z,8.59
2023-01-08T13:36:56.225Z,8.60
2023-01-08T13:39:57.876Z,8.56
2023-01-08T13:43:00.400Z,8.59
2023-01-08T13:46:02.077Z,8.62
2023-01-08T13:49:10.204Z,8.63
2023-01-08T13:52:26.810Z,8.65
2023-01-08T13:55:33.566Z,8.67
2023-01-08T13:58:46.126Z,8.69
2023-01-08T14:01:55.554Z,8.71
2023-01-08T14:04:58.938Z,8.72
2023-01-08T14:08:01.008Z,8.75
2023-01-08T14:11:04.048Z,8.74
2023-01-08T14:14:07.071Z,8.75
2023-01-08T14:17:16.831Z,8.79
2023-01-08T14:20:29.145Z,8.80
2023-01-08T14:23:41.116Z,8.74
2023-01-08T14:26:42.843Z,8.78
2023-01-08T14:29:45.754Z,8.74
2023-01-08T14:32:47.415Z,8.70
2023-01-08T14:35:51.381Z,8.66
2023-01-08T14:38:53.024Z,8.57
2023-01-08T14:42:14.651Z,8.51
2023-01-08T14:45:51.895Z,8.44
2023-01-08T14:48:54.957Z,8.35
2023-01-08T14:51:59.403Z,8.33
2023-01-08T14:55:03.382Z,8.25
2023-01-08T14:58:15.501Z,8.23
2023-01-08T15:01:21.064Z,8.22
2023-01-08T15:04:23.069Z,8.17
2023-01-08T15:07:29.622Z,8.19
2023-01-08T15:10:41.168Z,8.12
2023-01-08T15:13:42.894Z,8.13
2023-01-08T15:16:44.773Z,8.09
2023-01-08T15:19:50.246Z,8.07
2023-01-08T15:22:52.109Z,8.09
2023-01-08T15:25:55.242Z,8.04
2023-01-08T15:29:06.332Z,7.99
2023-01-08T15:32:14.892Z,8.02
2023-01-08T15:35:18.774Z,8.00
2023-01-08T15:38:21.302Z,8.00
2023-01-08T15:41:42.680Z,7.98
2023-01-08T15:44:44.410Z,7.93
2023-01-08T15:47:46.224Z,7.95
2023-01-08T15:50:47.990Z,7.96
2023-01-08T15:53:49.702Z,7.95
2023-01-08T15:56:51.483Z,7.95
2023-01-08T15:59:53.229Z,7.99
2023-01-08T16:02:55.790Z,7.95
2023-01-08T16:05:57.855Z,7.94
2023-01-08T16:09:02.123Z,7.98
2023-01-08T16:12:04.229Z,7.96
2023-01-08T16:15:09.832Z,8.01
2023-01-08T16:18:11.998Z,7.98
2023-01-08T16:21:14.430Z,8.00
2023-01-08T16:24:16.193Z,8.01
2023-01-08T16:27:18.637Z,8.01
2023-01-08T16:30:21.084Z,8.01
2023-01-08T16:33:23.422Z,8.04
2023-01-08T16:36:25.445Z,8.05
2023-01-08T16:39:27.559Z,8.08
2023-01-08T16:42:30.310Z,8.10
2023-01-08T16:45:32.296Z,8.09
2023-01-08T16:48:34.546Z,8.09
2023-01-08T16:51:36.871Z,8.14
2023-01-08T16:54:39.312Z,8.12
2023-01-08T16:57:41.099Z,8.12
2023-01-08T17:00:42.790Z,8.19
2023-01-08T17:03:44.743Z,8.11
2023-01-08T17:06:47.075Z,8.11
2023-01-08T17:09:48.881Z,8.12
2023-01-08T17:12:51.299Z,8.22
2023-01-08T17:15:53.329Z,8.23
2023-01-08T17:18:57.150Z,8.26
2023-01-08T17:21:59.007Z,8.25
2023-01-08T17:25:01.012Z,8.25
2023-01-08T17:28:02.929Z,8.29
2023-01-08T17:31:06.466Z,8.34
2023-01-08T17:34:13.020Z,8.35
2023-01-08T17:37:16.108Z,8.41
2023-01-08T17:40:18.224Z,8.40
2023-01-08T17:43:20.282Z,8.41
2023-01-08T17:46:26.472Z,8.39
2023-01-08T17:49:31.259Z,8.40
2023-01-08T17:52:33.225Z,8.35
2023-01-08T17:55:37.429Z,8.39
2023-01-08T17:58:39.356Z,8.40
2023-01-08T18:01:42.144Z,8.34
2023-01-08T18:04:49.375Z,8.33
2023-01-08T18:07:51.914Z,8.33
2023-01-08T18:10:53.982Z,8.30
2023-01-08T18:13:57.999Z,8.32
2023-01-08T18:16:59.895Z,8.30
2023-01-08T18:20:01.808Z,8.29
2023-01-08T18:23:03.842Z,8.24
2023-01-08T18:26:08.420Z,8.27
2023-01-08T18:29:10.997Z,8.34
2023-01-08T18:32:13.245Z,8.32
2023-01-08T18:35:15.380Z,8.32
2023-01-08T18:38:17.431Z,8.29
2023-01-08T18:41:39.469Z,8.25
2023-01-08T18:44:41.826Z,8.22
2023-01-08T18:47:43.958Z,8.25
2023-01-08T18:50:46.969Z,8.24
2023-01-08T18:53:50.026Z,8.24
2023-01-08T18:56:54.269Z,8.25
2023-01-08T18:59:56.601Z,8.22
2023-01-08T19:02:58.781Z,8.21
2023-01-08T19:06:00.976Z,8.25
2023-01-08T19:09:03.260Z,8.21
2023-01-08T19:12:05.654Z,8.20
2023-01-08T19:15:07.752Z,8.24
2023-01-08T19:18:10.014Z,8.14
2023-01-08T19:21:15.027Z,8.18
2023-01-08T19:24:17.801Z,8.24
2023-01-08T19:27:19.823Z,8.24
2023-01-08T19:30:22.037Z,8.21
2023-01-08T19:33:24.542Z,8.23
2023-01-08T19:36:27.007Z,8.20
2023-01-08T19:39:30.129Z,8.19
2023-01-08T19:42:51.350Z,8.20
2023-01-08T19:45:53.948Z,8.19
2023-01-08T19:49:00.990Z,8.23
2023-01-08T19:52:03.543Z,8.28
2023-01-08T19:55:06.796Z,8.31
2023-01-08T19:58:09.373Z,8.23
2023-01-08T20:01:16.717Z,8.24
2023-01-08T20:04:20.462Z,8.29
2023-01-08T20:07:22.731Z,8.34
2023-01-08T20:10:25.566Z,8.30
2023-01-08T20:13:27.677Z,8.35
2023-01-08T20:16:30.864Z,8.29
2023-01-08T20:19:34.923Z,8.29
2023-01-08T20:22:37.180Z,8.34
2023-01-08T20:25:39.885Z,8.29
2023-01-08T20:28:43.409Z,8.30
2023-01-08T20:31:46.391Z,8.27
2023-01-08T20:34:49.873Z,8.29
2023-01-08T20:37:53.553Z,8.27
2023-01-08T20:40:55.589Z,8.25
2023-01-08T20:43:57.905Z,8.27
2023-01-08T20:47:01.399Z,8.24
2023-01-08T20:50:09.444Z,8.23
2023-01-08T20:53:14.807Z,8.22
2023-01-08T20:56:17.024Z,8.18
2023-01-08T20:59:19.213Z,8.16
2023-01-08T21:02:21.466Z,8.17
2023-01-08T21:05:24.871Z,8.13
2023-01-08T21:08:27.135Z,8.15
2023-01-08T21:11:30.617Z,8.18
2023-01-08T21:14:32.582Z,8.22
2023-01-08T21:17:35.318Z,8.21
2023-01-08T21:20:37.142Z,8.19
2023-01-08T21:23:38.956Z,8.22
2023-01-08T21:26:40.820Z,8.27
2023-01-08T21:29:42.487Z,8.28
2023-01-08T21:32:44.150Z,8.23
2023-01-08T21:35:46.298Z,8.21
2023-01-08T21:38:48.419Z,8.24
2023-01-08T21:42:08.561Z,8.25
2023-01-08T21:45:25.741Z,8.29
2023-01-08T21:48:30.223Z,8.22
2023-01-08T21:51:50.397Z,8.29
2023-01-08T21:54:52.193Z,8.25
2023-01-08T21:57:53.837Z,8.22
2023-01-08T22:00:56.056Z,8.20
2023-01-08T22:03:57.815Z,8.22
2023-01-08T22:06:59.532Z,8.29
2023-01-08T22:10:01.335Z,8.24
2023-01-08T22:13:03.092Z,8.25
2023-01-08T22:16:09.195Z,8.30
2023-01-08T22:19:11.070Z,8.29
2023-01-08T22:22:13.177Z,8.25
2023-01-08T22:25:14.883Z,8.25
2023-01-08T22:28:16.534Z,8.22
2023-01-08T22:31:18.290Z,8.24
2023-01-08T22:34:19.973Z,8.36
2023-01-08T22:37:21.837Z,8.29
2023-01-08T22:40:23.591Z,8.29
2023-01-08T22:43:25.330Z,8.24
2023-01-08T22:46:27.080Z,8.28
2023-01-08T22:49:29.113Z,8.18
2023-01-08T22:52:30.820Z,8.16
2023-01-08T22:55:32.525Z,8.15
2023-01-08T22:58:34.235Z,8.16
2023-01-08T23:01:36.252Z,8.11
2023-01-08T23:04:37.970Z,8.14
2023-01-08T23:07:39.659Z,8.18
2023-01-08T23:10:41.312Z,8.21
2023-01-08T23:14:01.515Z,8.20
2023-01-08T23:17:03.898Z,8.17
2023-01-08T23:20:06.136Z,8.16
2023-01-08T23:23:07.847Z,8.12
2023-01-08T23:26:13.513Z,8.12
2023-01-08T23:29:15.203Z,8.13
2023-01-08T23:32:16.921Z,8.07
2023-01-08T23:35:18.594Z,8.14
2023-01-08T23:38:20.335Z,8.17
2023-01-08T23:41:26.031Z,8.12
2023-01-08T23:44:27.707Z,8.18
2023-01-08T23:47:29.420Z,8.14
2023-01-08T23:50:31.422Z,8.09
2023-01-08T23:53:33.106Z,8.08
2023-01-08T23:56:35.011Z,8.02
2023-01-08T23:59:36.677Z,7.98
